Airport View

Enter ICAO identifier to see the current METAR for that AWOS.

KFNL for example

K79S 211005Z AUTO 23003KT 10SM 14/12 A3001

21 Aug 2014 10:10

Frequency: 122.8

Phone: 406-622-5976

Other Area AWOS: KGFA - KGTF - KHVR - KLWT

TAF AMD KGFA 2107/2209 33012KT 9999 FEW020 BKN060 BKN100 QNH2984INS BECMG 2108/2109 25009KT 9999 SCT050 BKN100 QNH2990INS BECMG 2117/2118 30012KT 9000 -SHRA OVC040 QNH3000INS BECMG 2202/2203 03012KT 9999 NSW OVC040 QNH3000INS TX22/2122Z TN13/2112Z AMD 210709